sensor_id;sensor_type;location;lat;lon;timestamp;P1;durP1;ratioP1;P2;durP2;ratioP2
28266;SDS011;15525;45.568;5.448;2022-10-15T00:00:53;3.55;;;1.85;;
28266;SDS011;15525;45.568;5.448;2022-10-15T00:03:34;3.38;;;1.88;;
28266;SDS011;15525;45.568;5.448;2022-10-15T00:06:04;2.97;;;1.90;;
28266;SDS011;15525;45.568;5.448;2022-10-15T00:08:31;3.20;;;2.00;;
28266;SDS011;15525;45.568;5.448;2022-10-15T00:11:01;3.65;;;1.95;;
28266;SDS011;15525;45.568;5.448;2022-10-15T00:13:32;3.72;;;2.45;;
28266;SDS011;15525;45.568;5.448;2022-10-15T00:15:58;3.85;;;2.22;;
28266;SDS011;15525;45.568;5.448;2022-10-15T00:18:24;2.97;;;2.05;;
28266;SDS011;15525;45.568;5.448;2022-10-15T00:20:49;5.10;;;1.98;;
28266;SDS011;15525;45.568;5.448;2022-10-15T00:23:15;3.35;;;2.00;;
28266;SDS011;15525;45.568;5.448;2022-10-15T00:25:40;2.38;;;2.10;;
28266;SDS011;15525;45.568;5.448;2022-10-15T00:28:06;3.40;;;2.17;;
28266;SDS011;15525;45.568;5.448;2022-10-15T00:30:32;3.40;;;2.25;;
28266;SDS011;15525;45.568;5.448;2022-10-15T00:32:57;7.05;;;2.40;;
28266;SDS011;15525;45.568;5.448;2022-10-15T00:35:23;3.85;;;2.17;;
28266;SDS011;15525;45.568;5.448;2022-10-15T00:37:48;4.05;;;2.03;;
28266;SDS011;15525;45.568;5.448;2022-10-15T00:40:13;2.25;;;2.00;;
28266;SDS011;15525;45.568;5.448;2022-10-15T00:42:39;4.60;;;2.20;;
28266;SDS011;15525;45.568;5.448;2022-10-15T00:45:05;3.83;;;2.15;;
28266;SDS011;15525;45.568;5.448;2022-10-15T00:47:38;4.88;;;2.15;;
28266;SDS011;15525;45.568;5.448;2022-10-15T00:50:19;2.83;;;2.10;;
28266;SDS011;15525;45.568;5.448;2022-10-15T00:52:58;2.58;;;1.90;;
28266;SDS011;15525;45.568;5.448;2022-10-15T00:55:30;3.40;;;2.15;;
28266;SDS011;15525;45.568;5.448;2022-10-15T00:57:59;2.67;;;2.00;;
28266;SDS011;15525;45.568;5.448;2022-10-15T01:00:30;3.00;;;2.10;;
28266;SDS011;15525;45.568;5.448;2022-10-15T01:02:55;2.70;;;2.05;;
28266;SDS011;15525;45.568;5.448;2022-10-15T01:05:21;4.45;;;2.33;;
28266;SDS011;15525;45.568;5.448;2022-10-15T01:07:47;3.90;;;2.22;;
28266;SDS011;15525;45.568;5.448;2022-10-15T01:10:12;4.32;;;2.53;;
28266;SDS011;15525;45.568;5.448;2022-10-15T01:15:30;7.38;;;2.20;;
28266;SDS011;15525;45.568;5.448;2022-10-15T01:18:09;3.97;;;2.25;;
28266;SDS011;15525;45.568;5.448;2022-10-15T01:34:46;3.47;;;2.42;;
28266;SDS011;15525;45.568;5.448;2022-10-15T01:42:42;5.18;;;2.42;;
28266;SDS011;15525;45.568;5.448;2022-10-15T01:45:15;3.55;;;2.25;;
28266;SDS011;15525;45.568;5.448;2022-10-15T01:47:50;2.40;;;2.10;;
28266;SDS011;15525;45.568;5.448;2022-10-15T01:50:19;5.72;;;2.40;;
28266;SDS011;15525;45.568;5.448;2022-10-15T01:52:49;5.10;;;2.95;;
28266;SDS011;15525;45.568;5.448;2022-10-15T01:55:15;6.47;;;2.40;;
28266;SDS011;15525;45.568;5.448;2022-10-15T01:57:44;4.13;;;2.42;;
28266;SDS011;15525;45.568;5.448;2022-10-15T02:00:11;6.03;;;2.28;;
28266;SDS011;15525;45.568;5.448;2022-10-15T02:02:37;6.43;;;2.60;;
28266;SDS011;15525;45.568;5.448;2022-10-15T02:05:03;3.00;;;2.17;;
28266;SDS011;15525;45.568;5.448;2022-10-15T02:07:46;5.20;;;2.50;;
28266;SDS011;15525;45.568;5.448;2022-10-15T02:12:53;3.50;;;2.15;;
28266;SDS011;15525;45.568;5.448;2022-10-15T02:15:55;4.75;;;2.50;;
28266;SDS011;15525;45.568;5.448;2022-10-15T02:21:22;6.93;;;2.60;;
28266;SDS011;15525;45.568;5.448;2022-10-15T02:26:33;6.88;;;2.20;;
28266;SDS011;15525;45.568;5.448;2022-10-15T02:28:58;3.13;;;2.50;;
28266;SDS011;15525;45.568;5.448;2022-10-15T02:31:28;5.25;;;2.58;;
28266;SDS011;15525;45.568;5.448;2022-10-15T02:33:57;5.47;;;2.42;;
28266;SDS011;15525;45.568;5.448;2022-10-15T02:36:27;6.38;;;2.50;;
28266;SDS011;15525;45.568;5.448;2022-10-15T02:38:54;5.10;;;2.53;;
28266;SDS011;15525;45.568;5.448;2022-10-15T02:41:21;5.10;;;2.20;;
28266;SDS011;15525;45.568;5.448;2022-10-15T02:43:48;2.75;;;2.20;;
28266;SDS011;15525;45.568;5.448;2022-10-15T02:46:14;5.15;;;2.35;;
28266;SDS011;15525;45.568;5.448;2022-10-15T02:48:41;4.68;;;2.45;;
28266;SDS011;15525;45.568;5.448;2022-10-15T02:51:07;5.00;;;2.47;;
28266;SDS011;15525;45.568;5.448;2022-10-15T02:53:32;3.58;;;2.63;;
28266;SDS011;15525;45.568;5.448;2022-10-15T02:55:58;3.78;;;2.28;;
28266;SDS011;15525;45.568;5.448;2022-10-15T02:58:23;6.82;;;3.20;;
28266;SDS011;15525;45.568;5.448;2022-10-15T03:00:49;6.97;;;2.55;;
28266;SDS011;15525;45.568;5.448;2022-10-15T03:03:15;4.45;;;3.00;;
28266;SDS011;15525;45.568;5.448;2022-10-15T03:05:41;3.97;;;2.40;;
28266;SDS011;15525;45.568;5.448;2022-10-15T03:08:07;7.22;;;2.67;;
28266;SDS011;15525;45.568;5.448;2022-10-15T03:10:32;4.57;;;2.47;;
28266;SDS011;15525;45.568;5.448;2022-10-15T03:13:01;8.77;;;2.40;;
28266;SDS011;15525;45.568;5.448;2022-10-15T03:15:28;3.63;;;2.13;;
28266;SDS011;15525;45.568;5.448;2022-10-15T03:17:54;3.42;;;2.42;;
28266;SDS011;15525;45.568;5.448;2022-10-15T03:20:19;4.90;;;2.70;;
28266;SDS011;15525;45.568;5.448;2022-10-15T03:22:44;6.82;;;2.75;;
28266;SDS011;15525;45.568;5.448;2022-10-15T03:25:10;6.75;;;2.50;;
28266;SDS011;15525;45.568;5.448;2022-10-15T03:27:36;3.58;;;2.22;;
28266;SDS011;15525;45.568;5.448;2022-10-15T03:30:01;4.15;;;2.42;;
28266;SDS011;15525;45.568;5.448;2022-10-15T03:32:27;6.13;;;2.55;;
28266;SDS011;15525;45.568;5.448;2022-10-15T03:34:52;5.43;;;2.65;;
28266;SDS011;15525;45.568;5.448;2022-10-15T03:37:18;8.02;;;2.42;;
28266;SDS011;15525;45.568;5.448;2022-10-15T03:39:43;6.05;;;2.60;;
28266;SDS011;15525;45.568;5.448;2022-10-15T03:42:09;6.22;;;2.53;;
28266;SDS011;15525;45.568;5.448;2022-10-15T03:44:34;4.55;;;2.45;;
28266;SDS011;15525;45.568;5.448;2022-10-15T03:47:00;6.82;;;2.88;;
28266;SDS011;15525;45.568;5.448;2022-10-15T03:49:25;6.68;;;2.50;;
28266;SDS011;15525;45.568;5.448;2022-10-15T03:51:51;4.75;;;2.60;;
28266;SDS011;15525;45.568;5.448;2022-10-15T03:54:16;3.55;;;2.20;;
28266;SDS011;15525;45.568;5.448;2022-10-15T03:56:41;7.88;;;2.72;;
28266;SDS011;15525;45.568;5.448;2022-10-15T03:59:07;6.70;;;2.67;;
28266;SDS011;15525;45.568;5.448;2022-10-15T04:01:32;5.07;;;2.55;;
28266;SDS011;15525;45.568;5.448;2022-10-15T04:03:59;6.15;;;2.63;;
28266;SDS011;15525;45.568;5.448;2022-10-15T04:06:24;3.47;;;2.45;;
28266;SDS011;15525;45.568;5.448;2022-10-15T04:08:50;4.53;;;2.60;;
28266;SDS011;15525;45.568;5.448;2022-10-15T04:11:15;3.85;;;2.50;;
28266;SDS011;15525;45.568;5.448;2022-10-15T04:13:41;8.30;;;2.70;;
28266;SDS011;15525;45.568;5.448;2022-10-15T04:16:06;4.70;;;2.47;;
28266;SDS011;15525;45.568;5.448;2022-10-15T04:18:32;6.05;;;2.20;;
28266;SDS011;15525;45.568;5.448;2022-10-15T04:20:58;5.32;;;2.80;;
28266;SDS011;15525;45.568;5.448;2022-10-15T04:23:24;5.35;;;2.67;;
28266;SDS011;15525;45.568;5.448;2022-10-15T04:25:49;4.15;;;2.35;;
28266;SDS011;15525;45.568;5.448;2022-10-15T04:28:14;6.80;;;2.72;;
28266;SDS011;15525;45.568;5.448;2022-10-15T04:30:40;10.48;;;3.15;;
28266;SDS011;15525;45.568;5.448;2022-10-15T04:33:05;4.45;;;2.58;;
28266;SDS011;15525;45.568;5.448;2022-10-15T04:35:31;6.22;;;2.85;;
28266;SDS011;15525;45.568;5.448;2022-10-15T04:37:58;5.80;;;2.50;;
28266;SDS011;15525;45.568;5.448;2022-10-15T04:40:25;11.50;;;2.90;;
28266;SDS011;15525;45.568;5.448;2022-10-15T04:42:50;4.85;;;2.45;;
28266;SDS011;15525;45.568;5.448;2022-10-15T04:45:16;6.35;;;2.22;;
28266;SDS011;15525;45.568;5.448;2022-10-15T04:47:41;5.45;;;2.30;;
28266;SDS011;15525;45.568;5.448;2022-10-15T04:50:07;5.72;;;2.72;;
28266;SDS011;15525;45.568;5.448;2022-10-15T04:52:33;6.68;;;2.47;;
28266;SDS011;15525;45.568;5.448;2022-10-15T04:54:59;6.93;;;2.70;;
28266;SDS011;15525;45.568;5.448;2022-10-15T04:57:26;3.90;;;2.17;;
28266;SDS011;15525;45.568;5.448;2022-10-15T04:59:52;8.77;;;2.83;;
28266;SDS011;15525;45.568;5.448;2022-10-15T05:02:17;6.43;;;2.50;;
28266;SDS011;15525;45.568;5.448;2022-10-15T05:04:43;5.05;;;2.60;;
28266;SDS011;15525;45.568;5.448;2022-10-15T05:07:09;6.65;;;2.72;;
28266;SDS011;15525;45.568;5.448;2022-10-15T05:09:34;6.45;;;2.35;;
28266;SDS011;15525;45.568;5.448;2022-10-15T05:12:00;5.70;;;2.45;;
28266;SDS011;15525;45.568;5.448;2022-10-15T05:14:25;7.72;;;2.53;;
28266;SDS011;15525;45.568;5.448;2022-10-15T05:16:50;4.10;;;2.30;;
28266;SDS011;15525;45.568;5.448;2022-10-15T05:19:16;7.97;;;3.28;;
28266;SDS011;15525;45.568;5.448;2022-10-15T05:21:42;6.97;;;2.63;;
28266;SDS011;15525;45.568;5.448;2022-10-15T05:24:08;7.15;;;2.60;;
28266;SDS011;15525;45.568;5.448;2022-10-15T05:26:34;4.70;;;2.70;;
28266;SDS011;15525;45.568;5.448;2022-10-15T05:28:59;4.88;;;2.38;;
28266;SDS011;15525;45.568;5.448;2022-10-15T05:31:26;5.05;;;2.65;;
28266;SDS011;15525;45.568;5.448;2022-10-15T05:33:53;4.55;;;2.55;;
28266;SDS011;15525;45.568;5.448;2022-10-15T05:36:24;5.15;;;2.47;;
28266;SDS011;15525;45.568;5.448;2022-10-15T05:38:52;4.68;;;2.63;;
28266;SDS011;15525;45.568;5.448;2022-10-15T05:41:20;7.40;;;2.83;;
28266;SDS011;15525;45.568;5.448;2022-10-15T05:43:46;4.72;;;2.38;;
28266;SDS011;15525;45.568;5.448;2022-10-15T05:46:14;6.97;;;2.50;;
28266;SDS011;15525;45.568;5.448;2022-10-15T05:48:41;5.65;;;3.08;;
28266;SDS011;15525;45.568;5.448;2022-10-15T05:51:07;5.35;;;2.63;;
28266;SDS011;15525;45.568;5.448;2022-10-15T05:53:36;7.50;;;3.08;;
28266;SDS011;15525;45.568;5.448;2022-10-15T05:56:02;7.00;;;3.60;;
28266;SDS011;15525;45.568;5.448;2022-10-15T05:58:29;7.15;;;2.75;;
28266;SDS011;15525;45.568;5.448;2022-10-15T06:00:58;6.63;;;2.92;;
28266;SDS011;15525;45.568;5.448;2022-10-15T06:03:25;6.13;;;2.70;;
28266;SDS011;15525;45.568;5.448;2022-10-15T06:05:51;4.90;;;2.80;;
28266;SDS011;15525;45.568;5.448;2022-10-15T06:08:17;5.00;;;2.78;;
28266;SDS011;15525;45.568;5.448;2022-10-15T06:10:43;6.95;;;3.17;;
28266;SDS011;15525;45.568;5.448;2022-10-15T06:13:09;5.70;;;3.00;;
28266;SDS011;15525;45.568;5.448;2022-10-15T06:15:37;9.82;;;3.20;;
28266;SDS011;15525;45.568;5.448;2022-10-15T06:18:04;6.55;;;3.40;;
28266;SDS011;15525;45.568;5.448;2022-10-15T06:20:30;6.80;;;2.92;;
28266;SDS011;15525;45.568;5.448;2022-10-15T06:22:56;5.25;;;2.60;;
28266;SDS011;15525;45.568;5.448;2022-10-15T06:25:22;6.05;;;3.30;;
28266;SDS011;15525;45.568;5.448;2022-10-15T06:27:48;9.98;;;3.50;;
28266;SDS011;15525;45.568;5.448;2022-10-15T06:30:14;12.40;;;3.63;;
28266;SDS011;15525;45.568;5.448;2022-10-15T06:32:40;8.43;;;3.78;;
28266;SDS011;15525;45.568;5.448;2022-10-15T06:35:11;9.93;;;3.30;;
28266;SDS011;15525;45.568;5.448;2022-10-15T06:37:37;4.22;;;2.72;;
28266;SDS011;15525;45.568;5.448;2022-10-15T06:40:02;5.85;;;3.05;;
28266;SDS011;15525;45.568;5.448;2022-10-15T06:42:28;8.18;;;3.38;;
28266;SDS011;15525;45.568;5.448;2022-10-15T06:44:53;7.30;;;3.40;;
28266;SDS011;15525;45.568;5.448;2022-10-15T06:47:23;6.35;;;3.65;;
28266;SDS011;15525;45.568;5.448;2022-10-15T06:49:48;7.43;;;4.22;;
28266;SDS011;15525;45.568;5.448;2022-10-15T06:52:14;9.52;;;3.80;;
28266;SDS011;15525;45.568;5.448;2022-10-15T06:54:39;5.32;;;3.63;;
28266;SDS011;15525;45.568;5.448;2022-10-15T06:57:05;8.88;;;3.70;;
28266;SDS011;15525;45.568;5.448;2022-10-15T06:59:30;7.95;;;3.50;;
28266;SDS011;15525;45.568;5.448;2022-10-15T07:01:56;7.55;;;3.47;;
28266;SDS011;15525;45.568;5.448;2022-10-15T07:04:22;4.82;;;3.15;;
28266;SDS011;15525;45.568;5.448;2022-10-15T07:06:48;8.00;;;3.40;;
28266;SDS011;15525;45.568;5.448;2022-10-15T07:09:13;9.57;;;3.70;;
28266;SDS011;15525;45.568;5.448;2022-10-15T07:11:39;9.48;;;3.50;;
28266;SDS011;15525;45.568;5.448;2022-10-15T07:14:04;7.60;;;3.38;;
28266;SDS011;15525;45.568;5.448;2022-10-15T07:16:30;8.13;;;4.32;;
28266;SDS011;15525;45.568;5.448;2022-10-15T07:18:55;8.48;;;3.47;;
28266;SDS011;15525;45.568;5.448;2022-10-15T07:21:21;7.35;;;3.22;;
28266;SDS011;15525;45.568;5.448;2022-10-15T07:23:46;5.85;;;3.28;;
28266;SDS011;15525;45.568;5.448;2022-10-15T07:26:11;5.00;;;3.10;;
28266;SDS011;15525;45.568;5.448;2022-10-15T07:28:37;6.60;;;3.17;;
28266;SDS011;15525;45.568;5.448;2022-10-15T07:31:03;9.95;;;4.00;;
28266;SDS011;15525;45.568;5.448;2022-10-15T07:33:31;7.55;;;3.88;;
28266;SDS011;15525;45.568;5.448;2022-10-15T07:36:03;8.85;;;4.20;;
28266;SDS011;15525;45.568;5.448;2022-10-15T07:38:30;11.18;;;4.28;;
28266;SDS011;15525;45.568;5.448;2022-10-15T07:40:57;7.55;;;4.90;;
28266;SDS011;15525;45.568;5.448;2022-10-15T07:43:23;12.00;;;5.10;;
28266;SDS011;15525;45.568;5.448;2022-10-15T07:45:49;11.02;;;5.75;;
28266;SDS011;15525;45.568;5.448;2022-10-15T07:48:14;9.25;;;6.28;;
28266;SDS011;15525;45.568;5.448;2022-10-15T07:50:40;10.65;;;5.57;;
28266;SDS011;15525;45.568;5.448;2022-10-15T07:53:05;11.82;;;5.10;;
28266;SDS011;15525;45.568;5.448;2022-10-15T07:55:31;10.10;;;5.30;;
28266;SDS011;15525;45.568;5.448;2022-10-15T07:57:56;8.43;;;5.22;;
28266;SDS011;15525;45.568;5.448;2022-10-15T08:00:23;9.85;;;5.93;;
28266;SDS011;15525;45.568;5.448;2022-10-15T08:02:48;14.35;;;6.90;;
28266;SDS011;15525;45.568;5.448;2022-10-15T08:05:14;8.82;;;6.03;;
28266;SDS011;15525;45.568;5.448;2022-10-15T08:07:39;13.43;;;6.50;;
28266;SDS011;15525;45.568;5.448;2022-10-15T08:10:06;12.43;;;7.80;;
28266;SDS011;15525;45.568;5.448;2022-10-15T08:12:32;16.17;;;7.93;;
28266;SDS011;15525;45.568;5.448;2022-10-15T08:14:58;13.05;;;7.20;;
28266;SDS011;15525;45.568;5.448;2022-10-15T08:17:23;13.00;;;6.50;;
28266;SDS011;15525;45.568;5.448;2022-10-15T08:19:48;13.98;;;6.35;;
28266;SDS011;15525;45.568;5.448;2022-10-15T08:22:14;16.00;;;8.75;;
28266;SDS011;15525;45.568;5.448;2022-10-15T08:24:39;20.17;;;10.13;;
28266;SDS011;15525;45.568;5.448;2022-10-15T08:27:05;18.63;;;11.95;;
28266;SDS011;15525;45.568;5.448;2022-10-15T08:29:30;19.15;;;10.98;;
28266;SDS011;15525;45.568;5.448;2022-10-15T08:31:56;25.45;;;12.85;;
28266;SDS011;15525;45.568;5.448;2022-10-15T08:34:21;18.27;;;10.15;;
28266;SDS011;15525;45.568;5.448;2022-10-15T08:36:46;18.60;;;10.68;;
28266;SDS011;15525;45.568;5.448;2022-10-15T08:39:12;31.98;;;17.58;;
28266;SDS011;15525;45.568;5.448;2022-10-15T08:41:41;18.52;;;10.88;;
28266;SDS011;15525;45.568;5.448;2022-10-15T08:46:45;14.50;;;6.18;;
28266;SDS011;15525;45.568;5.448;2022-10-15T08:55:12;6.10;;;3.20;;
28266;SDS011;15525;45.568;5.448;2022-10-15T09:06:16;3.15;;;2.15;;
28266;SDS011;15525;45.568;5.448;2022-10-15T09:14:37;5.72;;;2.20;;
28266;SDS011;15525;45.568;5.448;2022-10-15T09:17:13;5.18;;;2.50;;
28266;SDS011;15525;45.568;5.448;2022-10-15T09:19:54;3.03;;;2.10;;
28266;SDS011;15525;45.568;5.448;2022-10-15T09:24:49;3.90;;;1.88;;
28266;SDS011;15525;45.568;5.448;2022-10-15T09:32:47;3.85;;;1.65;;
28266;SDS011;15525;45.568;5.448;2022-10-15T09:43:23;3.63;;;1.70;;
28266;SDS011;15525;45.568;5.448;2022-10-15T09:45:55;1.83;;;1.52;;
28266;SDS011;15525;45.568;5.448;2022-10-15T09:48:21;2.92;;;1.83;;
28266;SDS011;15525;45.568;5.448;2022-10-15T09:50:59;1.95;;;1.50;;
28266;SDS011;15525;45.568;5.448;2022-10-15T09:53:38;2.58;;;1.80;;
28266;SDS011;15525;45.568;5.448;2022-10-15T09:58:56;2.42;;;2.20;;
28266;SDS011;15525;45.568;5.448;2022-10-15T10:01:23;2.05;;;1.30;;
28266;SDS011;15525;45.568;5.448;2022-10-15T10:03:51;3.17;;;1.60;;
28266;SDS011;15525;45.568;5.448;2022-10-15T10:06:18;3.33;;;1.70;;
28266;SDS011;15525;45.568;5.448;2022-10-15T10:08:56;1.13;;;1.00;;
28266;SDS011;15525;45.568;5.448;2022-10-15T10:11:24;2.25;;;1.05;;
28266;SDS011;15525;45.568;5.448;2022-10-15T10:13:54;1.73;;;1.20;;
28266;SDS011;15525;45.568;5.448;2022-10-15T10:16:22;4.38;;;1.70;;
28266;SDS011;15525;45.568;5.448;2022-10-15T10:19:02;3.72;;;1.08;;
28266;SDS011;15525;45.568;5.448;2022-10-15T10:21:32;2.70;;;1.30;;
28266;SDS011;15525;45.568;5.448;2022-10-15T10:24:24;1.50;;;1.20;;
28266;SDS011;15525;45.568;5.448;2022-10-15T10:26:49;1.38;;;0.93;;
28266;SDS011;15525;45.568;5.448;2022-10-15T10:29:17;1.10;;;0.98;;
28266;SDS011;15525;45.568;5.448;2022-10-15T10:31:44;1.02;;;0.90;;
28266;SDS011;15525;45.568;5.448;2022-10-15T10:34:15;2.58;;;1.10;;
28266;SDS011;15525;45.568;5.448;2022-10-15T10:36:51;1.13;;;1.02;;
28266;SDS011;15525;45.568;5.448;2022-10-15T10:39:25;1.55;;;1.15;;
28266;SDS011;15525;45.568;5.448;2022-10-15T10:41:57;2.47;;;1.10;;
28266;SDS011;15525;45.568;5.448;2022-10-15T10:44:36;2.35;;;1.10;;
28266;SDS011;15525;45.568;5.448;2022-10-15T10:49:32;1.33;;;1.00;;
28266;SDS011;15525;45.568;5.448;2022-10-15T10:52:30;2.60;;;1.20;;
28266;SDS011;15525;45.568;5.448;2022-10-15T10:55:17;2.72;;;1.17;;
28266;SDS011;15525;45.568;5.448;2022-10-15T10:57:44;1.23;;;1.13;;
28266;SDS011;15525;45.568;5.448;2022-10-15T11:00:18;2.20;;;1.20;;
28266;SDS011;15525;45.568;5.448;2022-10-15T11:02:48;1.83;;;1.20;;
28266;SDS011;15525;45.568;5.448;2022-10-15T11:05:18;1.30;;;1.20;;
28266;SDS011;15525;45.568;5.448;2022-10-15T11:10:27;1.38;;;1.10;;
28266;SDS011;15525;45.568;5.448;2022-10-15T11:21:09;2.83;;;1.38;;
28266;SDS011;15525;45.568;5.448;2022-10-15T11:24:01;2.47;;;1.65;;
28266;SDS011;15525;45.568;5.448;2022-10-15T11:29:35;2.63;;;1.20;;
28266;SDS011;15525;45.568;5.448;2022-10-15T11:32:16;1.63;;;1.27;;
28266;SDS011;15525;45.568;5.448;2022-10-15T11:40:13;1.15;;;1.00;;
28266;SDS011;15525;45.568;5.448;2022-10-15T11:42:54;1.70;;;1.40;;
28266;SDS011;15525;45.568;5.448;2022-10-15T11:45:42;2.30;;;1.10;;
28266;SDS011;15525;45.568;5.448;2022-10-15T11:48:19;1.27;;;0.80;;
28266;SDS011;15525;45.568;5.448;2022-10-15T11:51:01;1.92;;;1.20;;
28266;SDS011;15525;45.568;5.448;2022-10-15T11:56:21;3.00;;;0.98;;
28266;SDS011;15525;45.568;5.448;2022-10-15T12:01:37;0.93;;;0.90;;
28266;SDS011;15525;45.568;5.448;2022-10-15T12:04:26;2.88;;;0.90;;
28266;SDS011;15525;45.568;5.448;2022-10-15T12:06:58;1.08;;;0.90;;
28266;SDS011;15525;45.568;5.448;2022-10-15T12:09:30;1.10;;;0.80;;
28266;SDS011;15525;45.568;5.448;2022-10-15T12:12:04;0.90;;;0.80;;
28266;SDS011;15525;45.568;5.448;2022-10-15T12:14:41;0.63;;;0.63;;
28266;SDS011;15525;45.568;5.448;2022-10-15T12:20:12;1.05;;;0.95;;
28266;SDS011;15525;45.568;5.448;2022-10-15T12:25:57;2.15;;;1.08;;
28266;SDS011;15525;45.568;5.448;2022-10-15T12:28:01;1.55;;;0.98;;
28266;SDS011;15525;45.568;5.448;2022-10-15T12:30:32;1.40;;;0.80;;
28266;SDS011;15525;45.568;5.448;2022-10-15T12:32:59;1.05;;;0.85;;
28266;SDS011;15525;45.568;5.448;2022-10-15T12:35:32;1.27;;;0.90;;
28266;SDS011;15525;45.568;5.448;2022-10-15T12:40:57;1.08;;;0.80;;
28266;SDS011;15525;45.568;5.448;2022-10-15T12:43:30;0.90;;;0.85;;
28266;SDS011;15525;45.568;5.448;2022-10-15T12:46:04;2.13;;;0.82;;
28266;SDS011;15525;45.568;5.448;2022-10-15T12:53:41;0.75;;;0.73;;
28266;SDS011;15525;45.568;5.448;2022-10-15T12:58:48;0.70;;;0.70;;
28266;SDS011;15525;45.568;5.448;2022-10-15T13:11:18;1.77;;;0.88;;
28266;SDS011;15525;45.568;5.448;2022-10-15T13:13:51;1.30;;;1.00;;
28266;SDS011;15525;45.568;5.448;2022-10-15T13:16:19;1.70;;;0.93;;
28266;SDS011;15525;45.568;5.448;2022-10-15T13:18:50;1.25;;;1.05;;
28266;SDS011;15525;45.568;5.448;2022-10-15T13:21:17;2.95;;;1.40;;
28266;SDS011;15525;45.568;5.448;2022-10-15T13:23:44;1.52;;;1.02;;
28266;SDS011;15525;45.568;5.448;2022-10-15T13:28:41;1.63;;;1.20;;
28266;SDS011;15525;45.568;5.448;2022-10-15T13:31:19;1.35;;;1.00;;
28266;SDS011;15525;45.568;5.448;2022-10-15T13:33:49;1.92;;;0.90;;
28266;SDS011;15525;45.568;5.448;2022-10-15T13:36:21;1.27;;;0.98;;
28266;SDS011;15525;45.568;5.448;2022-10-15T13:38:53;1.13;;;1.00;;
28266;SDS011;15525;45.568;5.448;2022-10-15T13:41:36;1.67;;;1.00;;
28266;SDS011;15525;45.568;5.448;2022-10-15T13:44:04;1.42;;;1.00;;
28266;SDS011;15525;45.568;5.448;2022-10-15T13:46:31;1.83;;;0.93;;
28266;SDS011;15525;45.568;5.448;2022-10-15T13:49:00;1.95;;;1.25;;
28266;SDS011;15525;45.568;5.448;2022-10-15T13:51:33;1.95;;;0.90;;
28266;SDS011;15525;45.568;5.448;2022-10-15T13:54:06;2.63;;;1.17;;
28266;SDS011;15525;45.568;5.448;2022-10-15T13:56:34;2.63;;;1.10;;
28266;SDS011;15525;45.568;5.448;2022-10-15T13:58:59;1.10;;;0.95;;
28266;SDS011;15525;45.568;5.448;2022-10-15T14:01:27;1.60;;;1.02;;
28266;SDS011;15525;45.568;5.448;2022-10-15T14:03:58;1.58;;;0.98;;
28266;SDS011;15525;45.568;5.448;2022-10-15T14:08:53;2.03;;;1.10;;
28266;SDS011;15525;45.568;5.448;2022-10-15T14:11:21;1.73;;;1.08;;
28266;SDS011;15525;45.568;5.448;2022-10-15T14:13:48;2.58;;;1.35;;
28266;SDS011;15525;45.568;5.448;2022-10-15T14:19:13;1.35;;;1.10;;
28266;SDS011;15525;45.568;5.448;2022-10-15T14:21:43;1.88;;;1.27;;
28266;SDS011;15525;45.568;5.448;2022-10-15T14:24:16;4.22;;;1.20;;
28266;SDS011;15525;45.568;5.448;2022-10-15T14:26:44;2.33;;;1.30;;
28266;SDS011;15525;45.568;5.448;2022-10-15T14:29:15;1.20;;;1.10;;
28266;SDS011;15525;45.568;5.448;2022-10-15T14:31:52;2.10;;;1.10;;
28266;SDS011;15525;45.568;5.448;2022-10-15T14:34:25;1.75;;;1.25;;
28266;SDS011;15525;45.568;5.448;2022-10-15T14:36:55;1.65;;;1.30;;
28266;SDS011;15525;45.568;5.448;2022-10-15T14:39:35;2.20;;;1.42;;
28266;SDS011;15525;45.568;5.448;2022-10-15T14:42:03;2.60;;;1.30;;
28266;SDS011;15525;45.568;5.448;2022-10-15T14:44:43;1.73;;;1.20;;
28266;SDS011;15525;45.568;5.448;2022-10-15T14:47:24;3.65;;;1.33;;
28266;SDS011;15525;45.568;5.448;2022-10-15T14:49:55;1.52;;;1.15;;
28266;SDS011;15525;45.568;5.448;2022-10-15T14:52:24;3.35;;;1.10;;
28266;SDS011;15525;45.568;5.448;2022-10-15T14:57:41;1.25;;;1.05;;
28266;SDS011;15525;45.568;5.448;2022-10-15T15:00:54;2.28;;;1.20;;
28266;SDS011;15525;45.568;5.448;2022-10-15T15:03:00;2.00;;;1.02;;
28266;SDS011;15525;45.568;5.448;2022-10-15T15:05:28;3.42;;;1.15;;
28266;SDS011;15525;45.568;5.448;2022-10-15T15:07:54;1.83;;;1.20;;
28266;SDS011;15525;45.568;5.448;2022-10-15T15:10:22;1.45;;;1.10;;
28266;SDS011;15525;45.568;5.448;2022-10-15T15:12:54;3.03;;;1.17;;
28266;SDS011;15525;45.568;5.448;2022-10-15T15:15:22;1.40;;;1.13;;
28266;SDS011;15525;45.568;5.448;2022-10-15T15:17:49;1.95;;;1.10;;
28266;SDS011;15525;45.568;5.448;2022-10-15T15:20:15;2.28;;;1.20;;
28266;SDS011;15525;45.568;5.448;2022-10-15T15:22:49;2.20;;;1.20;;
28266;SDS011;15525;45.568;5.448;2022-10-15T15:25:27;1.90;;;1.30;;
28266;SDS011;15525;45.568;5.448;2022-10-15T15:27:54;2.05;;;1.00;;
28266;SDS011;15525;45.568;5.448;2022-10-15T15:30:20;4.10;;;1.63;;
28266;SDS011;15525;45.568;5.448;2022-10-15T15:32:47;1.33;;;1.20;;
28266;SDS011;15525;45.568;5.448;2022-10-15T15:38:07;4.43;;;1.40;;
28266;SDS011;15525;45.568;5.448;2022-10-15T15:40:33;1.45;;;1.20;;
28266;SDS011;15525;45.568;5.448;2022-10-15T15:42:59;3.10;;;1.55;;
28266;SDS011;15525;45.568;5.448;2022-10-15T15:45:25;1.30;;;1.20;;
28266;SDS011;15525;45.568;5.448;2022-10-15T15:47:51;3.25;;;1.23;;
28266;SDS011;15525;45.568;5.448;2022-10-15T15:50:18;2.03;;;1.25;;
28266;SDS011;15525;45.568;5.448;2022-10-15T15:52:45;1.30;;;1.20;;
28266;SDS011;15525;45.568;5.448;2022-10-15T15:55:11;2.60;;;1.40;;
28266;SDS011;15525;45.568;5.448;2022-10-15T15:57:37;3.75;;;1.40;;
28266;SDS011;15525;45.568;5.448;2022-10-15T16:00:06;2.33;;;1.70;;
28266;SDS011;15525;45.568;5.448;2022-10-15T16:02:33;3.97;;;1.35;;
28266;SDS011;15525;45.568;5.448;2022-10-15T16:04:59;2.35;;;1.60;;
28266;SDS011;15525;45.568;5.448;2022-10-15T16:07:26;4.15;;;1.90;;
28266;SDS011;15525;45.568;5.448;2022-10-15T16:09:51;2.60;;;1.88;;
28266;SDS011;15525;45.568;5.448;2022-10-15T16:12:17;2.58;;;2.10;;
28266;SDS011;15525;45.568;5.448;2022-10-15T16:14:42;4.15;;;2.00;;
28266;SDS011;15525;45.568;5.448;2022-10-15T16:17:07;2.90;;;1.60;;
28266;SDS011;15525;45.568;5.448;2022-10-15T16:19:33;2.55;;;1.50;;
28266;SDS011;15525;45.568;5.448;2022-10-15T16:21:58;2.42;;;1.60;;
28266;SDS011;15525;45.568;5.448;2022-10-15T16:24:24;2.65;;;1.80;;
28266;SDS011;15525;45.568;5.448;2022-10-15T16:26:49;3.60;;;1.70;;
28266;SDS011;15525;45.568;5.448;2022-10-15T16:29:14;2.75;;;1.40;;
28266;SDS011;15525;45.568;5.448;2022-10-15T16:31:41;2.90;;;2.00;;
28266;SDS011;15525;45.568;5.448;2022-10-15T16:34:06;4.57;;;2.25;;
28266;SDS011;15525;45.568;5.448;2022-10-15T16:36:32;5.22;;;3.70;;
28266;SDS011;15525;45.568;5.448;2022-10-15T16:38:58;6.88;;;4.22;;
28266;SDS011;15525;45.568;5.448;2022-10-15T16:41:23;7.25;;;4.78;;
28266;SDS011;15525;45.568;5.448;2022-10-15T16:43:49;8.38;;;6.43;;
28266;SDS011;15525;45.568;5.448;2022-10-15T16:46:15;6.85;;;4.50;;
28266;SDS011;15525;45.568;5.448;2022-10-15T16:48:41;11.48;;;6.13;;
28266;SDS011;15525;45.568;5.448;2022-10-15T16:51:08;16.77;;;10.13;;
28266;SDS011;15525;45.568;5.448;2022-10-15T16:53:35;17.95;;;11.82;;
28266;SDS011;15525;45.568;5.448;2022-10-15T16:56:03;46.63;;;28.50;;
28266;SDS011;15525;45.568;5.448;2022-10-15T16:58:29;53.78;;;33.17;;
28266;SDS011;15525;45.568;5.448;2022-10-15T17:00:58;43.47;;;25.88;;
28266;SDS011;15525;45.568;5.448;2022-10-15T17:03:29;12.30;;;7.93;;
28266;SDS011;15525;45.568;5.448;2022-10-15T17:05:57;8.63;;;5.82;;
28266;SDS011;15525;45.568;5.448;2022-10-15T17:08:24;5.95;;;3.70;;
28266;SDS011;15525;45.568;5.448;2022-10-15T17:11:11;8.05;;;3.95;;
28266;SDS011;15525;45.568;5.448;2022-10-15T17:13:39;9.23;;;4.13;;